No particular awareness of the weather is required.    There are no Weather-warnings


Meteo18 Weather Cam more information Meteo18 Weather Cam


Thunder radar more information blitzortung!


Rain radar more information rain snow radar


Visit our other weather sites:

Template documentation
and downloads

And another site



Weather Underground History page Text

Daily Summary for June 11, 2017 Units:  Metric    English   Both
« Previous Day
Next Day »
Daily Weekly Monthly Yearly Custom
  High: Low: Average:
Temperature: -17.8 °C -9.9 °C -4.9 °C
Dew Point: -17.8 °C -11.1 °C -9.6 °C
Humidity: Humidity % 35 % 62 %
Wind Speed: 0 km/h 0 km/h 4 km/h
Wind Gust: 0 km/h - -
Wind:- - SW
Pressure: 0 hPa 34405.1 hPa -
Precipitation: 0 mm    
Historical Graphs
 
 
Tabular Data for June 11, 2017
Time Temperature Dew Point Pressure Wind Wind Speed Wind Gust Humidity Rainfall Rate (Hourly)
-17.8 °C -17.8 °C 0 hPa Calm     Humidity % 0 mm
00:02 -7.8 °C -10.3 °C 34554.1 hPa Calm     75 % 0 mm
00:07 -7.9 °C -10.3 °C 34554.1 hPa Calm     76 % 0 mm
00:12 -8 °C -10.4 °C 34554.1 hPa Calm     76 % 0 mm
00:17 -8.1 °C -10.4 °C 34554.1 hPa Calm     76 % 0 mm
00:22 -8.1 °C -10.5 °C 34544 hPa Calm     76 % 0 mm
00:27 -8.1 °C -10.5 °C 34544 hPa Calm     76 % 0 mm
00:32 -8.2 °C -10.6 °C 34544 hPa Calm     76 % 0 mm
00:42 -8.3 °C -10.6 °C 34544 hPa Calm     77 % 0 mm
00:47 -8.3 °C -10.4 °C 34544 hPa Calm     78 % 0 mm
00:52 -8.4 °C -10.6 °C 34533.8 hPa Calm     78 % 0 mm
00:57 -8.4 °C -10.6 °C 34533.8 hPa Calm     78 % 0 mm
01:02 -8.4 °C -10.6 °C 34533.8 hPa Calm     78 % 0 mm
01:07 -8.4 °C -10.5 °C 34533.8 hPa Calm     79 % 0 mm
01:12 -8.6 °C -10.5 °C 34533.8 hPa Calm     80 % 0 mm
01:17 -8.7 °C -10.6 °C 34533.8 hPa Calm     80 % 0 mm
01:22 -8.7 °C -10.6 °C 34533.8 hPa Calm     80 % 0 mm
01:27 -8.7 °C -10.6 °C 34533.8 hPa Calm     80 % 0 mm
01:32 -8.7 °C -10.7 °C 34533.8 hPa Calm     80 % 0 mm
01:37 -8.8 °C -10.6 °C 34533.8 hPa Calm     81 % 0 mm
01:42 -8.9 °C -10.6 °C 34533.8 hPa Calm     83 % 0 mm
01:47 -9 °C -10.6 °C 34533.8 hPa Calm     83 % 0 mm
01:52 -8.9 °C -10.6 °C 34533.8 hPa Calm     83 % 0 mm
01:57 -9 °C -10.6 °C 34533.8 hPa Calm     83 % 0 mm
02:02 -9.1 °C -10.6 °C 34533.8 hPa Calm     84 % 0 mm
02:07 -9.1 °C -10.5 °C 34520.3 hPa Calm     85 % 0 mm
02:12 -9 °C -10.5 °C 34533.8 hPa Calm     84 % 0 mm
02:17 -8.8 °C -10.4 °C 34533.8 hPa Calm     83 % 0 mm
02:22 -8.9 °C -10.5 °C 34520.3 hPa Calm     83 % 0 mm
02:27 -9 °C -10.6 °C 34520.3 hPa Calm     83 % 0 mm
02:32 -9.1 °C -10.6 °C 34520.3 hPa Calm     84 % 0 mm
02:37 -9 °C -10.5 °C 34520.3 hPa Calm     84 % 0 mm
02:42 -9.1 °C -10.6 °C 34520.3 hPa Calm     84 % 0 mm
02:52 -9.2 °C -10.6 °C 34520.3 hPa Calm     85 % 0 mm
02:57 -9.3 °C -10.7 °C 34520.3 hPa Calm     85 % 0 mm
03:02 -9.3 °C -10.7 °C 34520.3 hPa Calm     85 % 0 mm
03:07 -9.3 °C -10.7 °C 34520.3 hPa Calm     85 % 0 mm
03:12 -9.4 °C -10.7 °C 34520.3 hPa Calm     86 % 0 mm
03:17 -9.4 °C -10.7 °C 34520.3 hPa Calm     86 % 0 mm
03:22 -9.4 °C -10.7 °C 34520.3 hPa Calm     86 % 0 mm
03:27 -9.4 °C -10.7 °C 34520.3 hPa Calm     86 % 0 mm
03:32 -9.4 °C -10.7 °C 34520.3 hPa Calm     86 % 0 mm
03:37 -9.3 °C -10.6 °C 34520.3 hPa Calm     86 % 0 mm
03:42 -9.4 °C -10.7 °C 34520.3 hPa Calm     86 % 0 mm
03:47 -9.5 °C -10.8 °C 34520.3 hPa Calm     86 % 0 mm
03:52 -9.6 °C -10.8 °C 34520.3 hPa Calm     87 % 0 mm
03:57 -9.6 °C -10.8 °C 34520.3 hPa Calm     87 % 0 mm
04:02 -9.7 °C -10.8 °C 34520.3 hPa Calm     87 % 0 mm
04:07 -9.7 °C -10.8 °C 34520.3 hPa Calm     87 % 0 mm
04:12 -9.7 °C -10.8 °C 34520.3 hPa Calm     88 % 0 mm
04:17 -9.8 °C -10.9 °C 34520.3 hPa Calm     88 % 0 mm
04:22 -9.7 °C -10.8 °C 34520.3 hPa Calm     88 % 0 mm
04:27 -9.6 °C -10.7 °C 34520.3 hPa Calm     88 % 0 mm
04:32 -9.6 °C -10.7 °C 34520.3 hPa Calm     87 % 0 mm
04:37 -9.7 °C -10.8 °C 34520.3 hPa Calm     87 % 0 mm
04:42 -9.8 °C -10.9 °C 34510.1 hPa Calm     88 % 0 mm
04:47 -9.8 °C -10.9 °C 34520.3 hPa Calm     88 % 0 mm
04:52 -9.9 °C -11 °C 34510.1 hPa Calm     88 % 0 mm
04:57 -9.9 °C -11 °C 34510.1 hPa Calm     88 % 0 mm
05:02 -9.9 °C -11 °C 34510.1 hPa Calm     88 % 0 mm
05:07 -9.9 °C -11.1 °C 34510.1 hPa Calm     88 % 0 mm
05:12 -9.9 °C -10.9 °C 34510.1 hPa Calm     89 % 0 mm
05:17 -9.8 °C -10.8 °C 34510.1 hPa NNW 5.1 km/h   89 % 0 mm
05:22 -9.7 °C -10.8 °C 34510.1 hPa NNW 2.6 km/h   88 % 0 mm
05:27 -9.7 °C -10.8 °C 34510.1 hPa North 2.6 km/h 7.7 km/h 87 % 0 mm
05:32 -9.7 °C -10.8 °C 34510.1 hPa North 2.6 km/h 7.7 km/h 88 % 0 mm
05:37 -9.7 °C -10.8 °C 34510.1 hPa NNW 2.6 km/h 5.1 km/h 88 % 0 mm
05:42 -9.7 °C -10.8 °C 34510.1 hPa Calm   5.1 km/h 87 % 0 mm
05:52 -9.8 °C -10.9 °C 34510.1 hPa Calm   5.1 km/h 88 % 0 mm
05:57 -9.7 °C -10.8 °C 34510.1 hPa Calm   5.1 km/h 88 % 0 mm
06:02 -9.7 °C -10.8 °C 34510.1 hPa Calm   5.1 km/h 88 % 0 mm
06:12 -9.8 °C -10.9 °C 34496.6 hPa Calm   2.6 km/h 88 % 0 mm
06:17 -9.8 °C -10.9 °C 34496.6 hPa Calm     88 % 0 mm
06:22 -9.8 °C -10.7 °C 34496.6 hPa Calm     90 % 0 mm
06:27 -9.8 °C -10.8 °C 34510.1 hPa Calm     89 % 0 mm
06:32 -9.8 °C -10.8 °C 34496.6 hPa Calm     89 % 0 mm
06:42 -9.3 °C -10.6 °C 34496.6 hPa Calm     87 % 0 mm
06:52 -9 °C -10.4 °C 34496.6 hPa Calm     85 % 0 mm
06:57 -8.9 °C -10.4 °C 34496.6 hPa Calm     84 % 0 mm
07:02 -8.7 °C -10.2 °C 34496.6 hPa Calm     84 % 0 mm
07:12 -8.3 °C -10 °C 34496.6 hPa Calm     82 % 0 mm
07:17 -8.2 °C -9.9 °C 34510.1 hPa Calm     82 % 0 mm
07:22 -8 °C -9.7 °C 34510.1 hPa Calm     82 % 0 mm
07:27 -7.8 °C -9.7 °C 34510.1 hPa Calm     81 % 0 mm
07:42 -7.4 °C -9.5 °C 34510.1 hPa Calm     79 % 0 mm
07:47 -7.2 °C -9.3 °C 34510.1 hPa Calm     78 % 0 mm
07:52 -7.2 °C -9.4 °C 34510.1 hPa Calm     77 % 0 mm
07:57 -7.2 °C -9.4 °C 34510.1 hPa Calm     77 % 0 mm
08:02 -7.1 °C -9.7 °C 34510.1 hPa Calm     74 % 0 mm
08:12 -6.9 °C -9.2 °C 34510.1 hPa Calm     77 % 0 mm
08:17 -6.8 °C -9.1 °C 34510.1 hPa Calm     77 % 0 mm
08:27 -6.7 °C -9.4 °C 34510.1 hPa Calm     74 % 0 mm
08:32 -6.5 °C -9.2 °C 34510.1 hPa Calm     74 % 0 mm
08:37 -6.3 °C -9.6 °C 34496.6 hPa Calm     69 % 0 mm
08:42 -6.1 °C -9.4 °C 34496.6 hPa Calm     69 % 0 mm
08:47 -5.9 °C -9.4 °C 34496.6 hPa East 7.7 km/h   67 % 0 mm
08:52 -5.9 °C -9.6 °C 34496.6 hPa East 2.6 km/h   66 % 0 mm
09:02 -5.7 °C -9.4 °C 34496.6 hPa Calm   7.7 km/h 66 % 0 mm
09:12 -5.4 °C -9.3 °C 34510.1 hPa Calm   7.7 km/h 65 % 0 mm
09:17 -5.4 °C -9.3 °C 34496.6 hPa East 2.6 km/h 5.1 km/h 64 % 0 mm
09:22 -5.3 °C -9.1 °C 34510.1 hPa East 5.1 km/h 5.1 km/h 66 % 0 mm
09:27 -5.2 °C -9.2 °C 34510.1 hPa ENE 2.6 km/h 7.7 km/h 64 % 0 mm
09:32 -5.1 °C -9.2 °C 34496.6 hPa SE 5.1 km/h 7.7 km/h 63 % 0 mm
09:37 -5.1 °C -8.9 °C 34496.6 hPa NE 5.1 km/h 10.3 km/h 65 % 0 mm
09:42 -4.8 °C -8.9 °C 34496.6 hPa East 2.6 km/h 10.3 km/h 63 % 0 mm
09:52 -4.7 °C -8.8 °C 34496.6 hPa East 2.6 km/h 12.9 km/h 63 % 0 mm
09:57 -4.4 °C -8.7 °C 34496.6 hPa Calm   12.9 km/h 62 % 0 mm
10:02 -4.3 °C -8.9 °C 34496.6 hPa ESE 5.1 km/h 12.9 km/h 60 % 0 mm
10:12 -4.3 °C -8.9 °C 34496.6 hPa SE 2.6 km/h 10.3 km/h 60 % 0 mm
10:17 -4.3 °C -9 °C 34496.6 hPa SE 5.1 km/h 10.3 km/h 59 % 0 mm
10:22 -4.3 °C -9 °C 34496.6 hPa SSE 2.6 km/h 10.3 km/h 59 % 0 mm
10:27 -4.2 °C -9.1 °C 34496.6 hPa Calm   7.7 km/h 58 % 0 mm
10:32 -3.9 °C -8.6 °C 34496.6 hPa ENE 5.1 km/h 7.7 km/h 60 % 0 mm
10:37 -3.8 °C -9.2 °C 34496.6 hPa ENE 5.1 km/h 10.3 km/h 55 % 0 mm
10:42 -3.8 °C -9 °C 34486.4 hPa East 5.1 km/h 10.3 km/h 56 % 0 mm
10:47 -3.7 °C -8.9 °C 34486.4 hPa NE 2.6 km/h 15.6 km/h 56 % 0 mm
10:52 -3.7 °C -9.2 °C 34486.4 hPa SSE 5.1 km/h 15.6 km/h 54 % 0 mm
10:57 -3.5 °C -8.9 °C 34486.4 hPa SE 7.7 km/h 12.9 km/h 55 % 0 mm
11:02 -3.4 °C -9 °C 34486.4 hPa Calm   12.9 km/h 54 % 0 mm
11:07 -3.3 °C -9 °C 34486.4 hPa Calm   12.9 km/h 53 % 0 mm
11:12 -3.2 °C -9.1 °C 34486.4 hPa SSE 2.6 km/h 12.9 km/h 52 % 0 mm
11:17 -3.1 °C -8.7 °C 34486.4 hPa East 5.1 km/h 12.9 km/h 54 % 0 mm
11:22 -3.1 °C -9 °C 34486.4 hPa Calm   12.9 km/h 52 % 0 mm
11:27 -3.1 °C -9 °C 34486.4 hPa Calm   12.9 km/h 52 % 0 mm
11:37 -2.7 °C -9.2 °C 34486.4 hPa East 5.1 km/h 10.3 km/h 49 % 0 mm
11:42 -3.1 °C -9.8 °C 34486.4 hPa East 2.6 km/h 10.3 km/h 47 % 0 mm
11:47 -3 °C -9.8 °C 34476.3 hPa Calm   10.3 km/h 47 % 0 mm
11:52 -2.9 °C -9.6 °C 34486.4 hPa Calm   10.3 km/h 48 % 0 mm
11:57 -2.8 °C -9.7 °C 34486.4 hPa Calm   10.3 km/h 47 % 0 mm
12:02 -2.6 °C -9.1 °C 34476.3 hPa ESE 2.6 km/h 10.3 km/h 49 % 0 mm
12:07 -2.6 °C -9.4 °C 34476.3 hPa ENE 5.1 km/h 10.3 km/h 47 % 0 mm
12:12 -2.8 °C -9.4 °C 34476.3 hPa East 7.7 km/h 12.9 km/h 48 % 0 mm
12:17 -2.7 °C -9.3 °C 34476.3 hPa Calm   12.9 km/h 48 % 0 mm
12:22 -2.3 °C -8.8 °C 34476.3 hPa Calm   12.9 km/h 49 % 0 mm
12:27 -2.3 °C -9.6 °C 34476.3 hPa SE 10.3 km/h 15.6 km/h 45 % 0 mm
12:32 -2.4 °C -10 °C 34476.3 hPa ESE 5.1 km/h 15.6 km/h 43 % 0 mm
12:37 -2.4 °C -10.3 °C 34476.3 hPa Calm   15.6 km/h 42 % 0 mm
12:42 -2.2 °C -9.6 °C 34476.3 hPa East 5.1 km/h 12.9 km/h 44 % 0 mm
12:47 -2.1 °C -9.6 °C 34476.3 hPa Calm   10.3 km/h 44 % 0 mm
12:52 -2.1 °C -9.5 °C 34476.3 hPa West 5.1 km/h 10.3 km/h 44 % 0 mm
12:57 -2.2 °C -9.7 °C 34476.3 hPa SSW 7.7 km/h 10.3 km/h 44 % 0 mm
13:02 -2.1 °C -9.4 °C 34462.7 hPa East 5.1 km/h 10.3 km/h 45 % 0 mm
13:07 -2.3 °C -9.8 °C 34462.7 hPa North 2.6 km/h 12.9 km/h 44 % 0 mm
13:12 -2.1 °C -9.4 °C 34462.7 hPa East 5.1 km/h 12.9 km/h 45 % 0 mm
13:17 -2 °C -9.4 °C 34462.7 hPa SE 2.6 km/h 12.9 km/h 44 % 0 mm
13:22 -2 °C -8.9 °C 34462.7 hPa SSE 2.6 km/h 7.7 km/h 47 % 0 mm
13:32 -1.7 °C -9.2 °C 34462.7 hPa SE 2.6 km/h 10.3 km/h 44 % 0 mm
13:37 -1.8 °C -9.9 °C 34462.7 hPa Calm   20.8 km/h 41 % 0 mm
13:42 -1.9 °C -9.9 °C 34462.7 hPa NW 2.6 km/h 20.8 km/h 41 % 0 mm
13:47 -1.7 °C -9.6 °C 34462.7 hPa Calm   20.8 km/h 42 % 0 mm
13:52 -1.4 °C -9.2 °C 34462.7 hPa South 10.3 km/h 12.9 km/h 43 % 0 mm
13:57 -1.3 °C -9.6 °C 34462.7 hPa SSW 10.3 km/h 12.9 km/h 40 % 0 mm
14:02 -1.4 °C -9.6 °C 34452.6 hPa SW 5.1 km/h 15.6 km/h 41 % 0 mm
14:07 -1.4 °C -9.4 °C 34452.6 hPa WSW 2.6 km/h 15.6 km/h 42 % 0 mm
14:12 -1.4 °C -10.2 °C 34452.6 hPa SSW 20.8 km/h 20.8 km/h 38 % 0 mm
14:17 -1.4 °C -10 °C 34452.6 hPa SW 10.3 km/h 20.8 km/h 39 % 0 mm
14:22 -1.4 °C -10.4 °C 34452.6 hPa SW 20.8 km/h 20.8 km/h 37 % 0 mm
14:27 -1.5 °C -9.6 °C 34452.6 hPa SSW 10.3 km/h 20.8 km/h 41 % 0 mm
14:32 -1.4 °C -10 °C 34452.6 hPa WSW 10.3 km/h 20.8 km/h 39 % 0 mm
14:37 -1.4 °C -9.9 °C 34442.4 hPa ESE 5.1 km/h 20.8 km/h 39 % 0 mm
14:42 -1.3 °C -9.8 °C 34442.4 hPa West 5.1 km/h 15.6 km/h 39 % 0 mm
14:47 -1.2 °C -10.5 °C 34442.4 hPa SW 7.7 km/h 20.8 km/h 36 % 0 mm
14:52 -1.2 °C -10 °C 34442.4 hPa West 7.7 km/h 20.8 km/h 38 % 0 mm
14:57 -1.2 °C -10 °C 34442.4 hPa SW 5.1 km/h 18.2 km/h 38 % 0 mm
15:02 -1.1 °C -9.9 °C 34442.4 hPa SSW 20.8 km/h 20.8 km/h 38 % 0 mm
15:07 -0.9 °C -9.5 °C 34442.4 hPa SW 7.7 km/h 28.5 km/h 39 % 0 mm
15:12 -0.9 °C -10.4 °C 34442.4 hPa SSW 12.9 km/h 28.5 km/h 35 % 0 mm
15:17 -1 °C -10.1 °C 34442.4 hPa SSW 15.6 km/h 25.9 km/h 37 % 0 mm
15:22 -1.2 °C -10.7 °C 34442.4 hPa SW 20.8 km/h 25.9 km/h 35 % 0 mm
15:27 -1.2 °C -10.5 °C 34442.4 hPa West 10.3 km/h 25.9 km/h 36 % 0 mm
15:32 -1.1 °C -10.6 °C 34442.4 hPa SSW 10.3 km/h 25.9 km/h 35 % 0 mm
15:37 -1.2 °C -10.4 °C 34442.4 hPa WSW 18.2 km/h 25.9 km/h 36 % 0 mm
15:42 -1.2 °C -10 °C 34442.4 hPa NNW 2.6 km/h 23.3 km/h 38 % 0 mm
15:47 -1.1 °C -10.1 °C 34442.4 hPa WSW 7.7 km/h 23.3 km/h 37 % 0 mm
15:52 -1.2 °C -9.8 °C 34442.4 hPa WNW 5.1 km/h 28.5 km/h 39 % 0 mm
15:57 -1.2 °C -10 °C 34442.4 hPa WNW 7.7 km/h 28.5 km/h 38 % 0 mm
16:02 -1.2 °C -9.8 °C 34442.4 hPa WNW 15.6 km/h 28.5 km/h 39 % 0 mm
16:12 -1.2 °C -9.8 °C 34442.4 hPa WSW 10.3 km/h 23.3 km/h 39 % 0 mm
16:17 -0.9 °C -9.8 °C 34442.4 hPa SW 12.9 km/h 23.3 km/h 38 % 0 mm
16:22 -1.1 °C -9.9 °C 34442.4 hPa West 12.9 km/h 20.8 km/h 38 % 0 mm
16:27 -1.3 °C -9.6 °C 34442.4 hPa WNW 7.7 km/h 20.8 km/h 40 % 0 mm
16:32 -1.2 °C -9.4 °C 34442.4 hPa West 5.1 km/h 18.2 km/h 41 % 0 mm
16:37 -1.2 °C -9.8 °C 34442.4 hPa SW 2.6 km/h 18.2 km/h 39 % 0 mm
16:42 -1 °C -9.6 °C 34428.8 hPa WSW 10.3 km/h 18.2 km/h 39 % 0 mm
16:47 -1 °C -9.6 °C 34428.8 hPa SSE 2.6 km/h 18.2 km/h 39 % 0 mm
16:52 -0.8 °C -9.2 °C 34428.8 hPa West 2.6 km/h 15.6 km/h 40 % 0 mm
16:57 -0.9 °C -9.3 °C 34428.8 hPa SW 15.6 km/h 15.6 km/h 40 % 0 mm
17:02 -1.1 °C -9.5 °C 34428.8 hPa WSW 12.9 km/h 18.2 km/h 40 % 0 mm
17:07 -1.1 °C -9.2 °C 34428.8 hPa WSW 12.9 km/h 18.2 km/h 41 % 0 mm
17:12 -1.1 °C -9.3 °C 34428.8 hPa WNW 12.9 km/h 20.8 km/h 41 % 0 mm
17:17 -1.2 °C -9.3 °C 34428.8 hPa North 7.7 km/h 20.8 km/h 41 % 0 mm
17:22 -1 °C -8.9 °C 34428.8 hPa NW 7.7 km/h 20.8 km/h 42 % 0 mm
17:27 -0.9 °C -9.3 °C 34428.8 hPa WNW 10.3 km/h 20.8 km/h 40 % 0 mm
17:32 -1.1 °C -9.4 °C 34428.8 hPa WNW 7.7 km/h 20.8 km/h 40 % 0 mm
17:42 -0.8 °C -9 °C 34418.7 hPa WNW 5.1 km/h 23.3 km/h 41 % 0 mm
17:47 -0.9 °C -9.3 °C 34418.7 hPa NNE 2.6 km/h 18.2 km/h 40 % 0 mm
17:52 -0.9 °C -9.3 °C 34418.7 hPa WSW 2.6 km/h 18.2 km/h 40 % 0 mm
17:57 -0.9 °C -9.3 °C 34418.7 hPa SW 7.7 km/h 18.2 km/h 40 % 0 mm
18:02 -0.9 °C -8.9 °C 34405.1 hPa WNW 7.7 km/h 18.2 km/h 42 % 0 mm
18:07 -0.9 °C -8.7 °C 34418.7 hPa WSW 7.7 km/h 18.2 km/h 43 % 0 mm
18:12 -0.9 °C -9.1 °C 34418.7 hPa WNW 7.7 km/h 18.2 km/h 41 % 0 mm
18:17 -0.9 °C -9.1 °C 34418.7 hPa WNW 5.1 km/h 15.6 km/h 41 % 0 mm
18:22 -1 °C -8.9 °C 34405.1 hPa WSW 7.7 km/h 15.6 km/h 42 % 0 mm
18:27 -0.9 °C -8.9 °C 34405.1 hPa West 2.6 km/h 18.2 km/h 42 % 0 mm
18:32 -0.7 °C -8.9 °C 34405.1 hPa Calm   18.2 km/h 41 % 0 mm
18:37 -0.6 °C -8.8 °C 34405.1 hPa WNW 10.3 km/h 10.3 km/h 41 % 0 mm
18:42 -0.7 °C -8.7 °C 34405.1 hPa WNW 10.3 km/h 12.9 km/h 42 % 0 mm
18:47 -0.9 °C -8.7 °C 34405.1 hPa WNW 18.2 km/h 28.5 km/h 43 % 0 mm
18:52 -1 °C -8.6 °C 34405.1 hPa WNW 20.8 km/h 28.5 km/h 44 % 0 mm
18:57 -1 °C -8.2 °C 34405.1 hPa WNW 15.6 km/h 28.5 km/h 46 % 0 mm
19:02 -0.9 °C -8.3 °C 34405.1 hPa West 7.7 km/h 23.3 km/h 45 % 0 mm
19:12 -1.2 °C -8.3 °C 34405.1 hPa WSW 12.9 km/h 20.8 km/h 46 % 0 mm
19:17 -1.2 °C -8.3 °C 34405.1 hPa WNW 10.3 km/h 23.3 km/h 46 % 0 mm
19:22 -1.2 °C -8.4 °C 34405.1 hPa West 7.7 km/h 23.3 km/h 46 % 0 mm
19:27 -1.3 °C -8.4 °C 34405.1 hPa West 10.3 km/h 23.3 km/h 46 % 0 mm
19:32 -1.3 °C -8.4 °C 34405.1 hPa West 12.9 km/h 23.3 km/h 46 % 0 mm
19:37 -1.3 °C -8.3 °C 34418.7 hPa WNW 12.9 km/h 25.9 km/h 47 % 0 mm
19:42 -1.4 °C -8.2 °C 34418.7 hPa WNW 2.6 km/h 25.9 km/h 48 % 0 mm
19:47 -1.6 °C -8.3 °C 34418.7 hPa NNW 7.7 km/h 25.9 km/h 48 % 0 mm
19:52 -1.7 °C -8.4 °C 34418.7 hPa WNW 12.9 km/h 28.5 km/h 48 % 0 mm
19:57 -1.7 °C -8.3 °C 34418.7 hPa WNW 12.9 km/h 28.5 km/h 49 % 0 mm
20:02 -1.8 °C -8.2 °C 34418.7 hPa NW 5.1 km/h 28.5 km/h 50 % 0 mm
20:12 -1.8 °C -8.4 °C 34418.7 hPa WNW 7.7 km/h 25.9 km/h 49 % 0 mm
20:17 -1.9 °C -8.4 °C 34418.7 hPa West 7.7 km/h 20.8 km/h 49 % 0 mm
20:22 -1.9 °C -8.4 °C 34418.7 hPa West 7.7 km/h 20.8 km/h 49 % 0 mm
20:27 -2 °C -8.3 °C 34428.8 hPa WNW 12.9 km/h 20.8 km/h 50 % 0 mm
20:32 -2.1 °C -8.6 °C 34428.8 hPa West 15.6 km/h 25.9 km/h 49 % 0 mm
20:37 -2.2 °C -8.5 °C 34428.8 hPa WNW 12.9 km/h 31.1 km/h 50 % 0 mm
20:42 -2.3 °C -8.5 °C 34428.8 hPa WNW 18.2 km/h 31.1 km/h 51 % 0 mm
20:52 -2.6 °C -8.6 °C 34428.8 hPa WNW 2.6 km/h 25.9 km/h 52 % 0 mm
20:57 -2.7 °C -8.5 °C 34428.8 hPa WNW 7.7 km/h 23.3 km/h 53 % 0 mm
21:02 -2.8 °C -8.6 °C 34428.8 hPa WNW 10.3 km/h 18.2 km/h 53 % 0 mm
21:07 -2.9 °C -8.6 °C 34442.4 hPa NNW 7.7 km/h 18.2 km/h 54 % 0 mm
21:12 -3.1 °C -8.6 °C 34428.8 hPa West 5.1 km/h 15.6 km/h 55 % 0 mm
21:17 -3.2 °C -8.5 °C 34428.8 hPa WNW 7.7 km/h 15.6 km/h 56 % 0 mm
21:22 -3.4 °C -8.7 °C 34428.8 hPa WNW 2.6 km/h 12.9 km/h 56 % 0 mm
21:32 -3.5 °C -8.6 °C 34428.8 hPa Calm   7.7 km/h 57 % 0 mm
21:37 -3.6 °C -8.6 °C 34428.8 hPa Calm   7.7 km/h 58 % 0 mm
21:42 -3.8 °C -8.4 °C 34428.8 hPa Calm     60 % 0 mm
21:47 -4.1 °C -8.5 °C 34428.8 hPa WNW 5.1 km/h 5.1 km/h 61 % 0 mm
21:52 -4.1 °C -8.6 °C 34428.8 hPa Calm   5.1 km/h 61 % 0 mm
21:57 -4.2 °C -8.6 °C 34428.8 hPa Calm   5.1 km/h 62 % 0 mm
22:02 -4.3 °C -8.5 °C 34442.4 hPa Calm   5.1 km/h 63 % 0 mm
22:12 -4.6 °C -8.4 °C 34442.4 hPa Calm     65 % 0 mm
22:17 -4.8 °C -8.5 °C 34442.4 hPa Calm     66 % 0 mm
22:22 -4.9 °C -8.5 °C 34442.4 hPa Calm     67 % 0 mm
22:27 -5 °C -8.4 °C 34452.6 hPa Calm     68 % 0 mm
22:32 -5.1 °C -8.4 °C 34452.6 hPa Calm     69 % 0 mm
22:42 -5.2 °C -8.4 °C 34452.6 hPa West 2.6 km/h 5.1 km/h 70 % 0 mm
22:52 -5.4 °C -8.4 °C 34462.7 hPa Calm   5.1 km/h 71 % 0 mm
22:57 -5.4 °C -8.4 °C 34462.7 hPa Calm   5.1 km/h 71 % 0 mm
23:02 -5.4 °C -8.4 °C 34462.7 hPa Calm   5.1 km/h 71 % 0 mm
23:07 -5.4 °C -8.4 °C 34462.7 hPa Calm   5.1 km/h 71 % 0 mm
23:12 -5.4 °C -8.3 °C 34462.7 hPa Calm   5.1 km/h 72 % 0 mm
23:17 -5.4 °C -8.4 °C 34462.7 hPa Calm   2.6 km/h 72 % 0 mm
23:22 -5.4 °C -8.4 °C 34462.7 hPa WNW 5.1 km/h   72 % 0 mm
23:27 -5.2 °C -8.4 °C 34462.7 hPa Calm   7.7 km/h 70 % 0 mm
23:32 -5.1 °C -8.4 °C 34462.7 hPa WNW 2.6 km/h 7.7 km/h 69 % 0 mm
23:37 -4.9 °C -8.4 °C 34462.7 hPa WNW 2.6 km/h 10.3 km/h 68 % 0 mm
23:42 -4.9 °C -8.3 °C 34462.7 hPa West 2.6 km/h 12.9 km/h 68 % 0 mm
23:47 -4.9 °C -8.3 °C 34476.3 hPa WNW 7.7 km/h 12.9 km/h 68 % 0 mm
23:52 -4.9 °C -8.2 °C 34462.7 hPa NNW 5.1 km/h 12.9 km/h 69 % 0 mm
23:57 -4.9 °C -8.2 °C 34476.3 hPa NNW 2.6 km/h 18.2 km/h 69 % 0 mm
Meteo18
Compliments of Weather Underground - 4 mb

Script developed by  Jim McMurry - jmcmurry@mwt.net Adapted for the template by  Wim van der Kuil - Leuven-Template.eu

You find our weather info also at:

European Weather Network

Weather Underground

Equipment we use:

Weather-station
Davis Vue

Weather-program
Meteobridge

Weather-server
Raspberry PI 2 B+

Provider
1 and 1

Davis Vue

Meteobridge

Raspberry PI 2 B+

1 and 1